Time;durP1;ratioP1;P1;durP2;ratioP2;P2;SDS_P1;SDS_P2;PMS_P1;PMS_P2;Temp;Humidity;BMP_temperature;BMP_pressure;BME280_temperature;BME280_humidity;BME280_pressure;Samples;Min_cycle;Max_cycle;Signal;HPM_P1;HPM_P2
2021/12/03 00:01:28;;;;;;;0.20;0.20;;;;;;;;;;5025726;28;20323;-68
2021/12/03 00:03:54;;;;;;;0.30;0.30;;;;;;;;;;5031060;28;20247;-68
2021/12/03 00:06:22;;;;;;;0.30;0.30;;;;;;;;;;5024894;28;20232;-67
2021/12/03 00:08:48;;;;;;;0.20;0.20;;;;;;;;;;5038185;28;20439;-68
2021/12/03 00:11:15;;;;;;;0.20;0.20;;;;;;;;;;5027175;28;20208;-69
2021/12/03 00:13:42;;;;;;;0.30;0.30;;;;;;;;;;5043971;28;20381;-67
2021/12/03 00:16:08;;;;;;;0.20;0.20;;;;;;;;;;5025244;28;20205;-68
2021/12/03 00:18:34;;;;;;;0.27;0.27;;;;;;;;;;5031533;28;20234;-67
2021/12/03 00:21:03;;;;;;;0.30;0.30;;;;;;;;;;5026555;28;20224;-67
2021/12/03 00:23:31;;;;;;;0.30;0.30;;;;;;;;;;5034595;28;20225;-67
2021/12/03 00:25:59;;;;;;;0.30;0.30;;;;;;;;;;5024425;28;20259;-68
2021/12/03 00:28:25;;;;;;;0.30;0.30;;;;;;;;;;5033016;28;20209;-68
2021/12/03 00:30:52;;;;;;;0.37;0.37;;;;;;;;;;5029735;28;20207;-68
2021/12/03 00:33:18;;;;;;;0.30;0.30;;;;;;;;;;5040600;28;20243;-68
2021/12/03 00:35:44;;;;;;;0.20;0.20;;;;;;;;;;5035850;28;20200;-67
2021/12/03 00:38:10;;;;;;;0.20;0.20;;;;;;;;;;5031822;28;20220;-67
2021/12/03 00:40:39;;;;;;;0.30;0.30;;;;;;;;;;5036510;28;20306;-67
2021/12/03 00:43:06;;;;;;;0.30;0.30;;;;;;;;;;5030371;28;20504;-67
2021/12/03 00:45:33;;;;;;;0.30;0.30;;;;;;;;;;5033521;28;20231;-62
2021/12/03 00:47:59;;;;;;;0.30;0.30;;;;;;;;;;5023899;28;20201;-68
2021/12/03 00:50:26;;;;;;;0.30;0.30;;;;;;;;;;5024374;28;20520;-68
2021/12/03 00:52:53;;;;;;;0.30;0.30;;;;;;;;;;5036282;28;20291;-67
2021/12/03 00:55:20;;;;;;;0.30;0.30;;;;;;;;;;5039659;28;20224;-67
2021/12/03 00:57:48;;;;;;;0.30;0.30;;;;;;;;;;5042179;28;20242;-67
2021/12/03 01:00:16;;;;;;;0.40;0.40;;;;;;;;;;5025221;28;20263;-67
2021/12/03 01:02:42;;;;;;;0.30;0.30;;;;;;;;;;5024482;28;20431;-67
2021/12/03 01:05:09;;;;;;;0.50;0.50;;;;;;;;;;5023693;28;20230;-67
2021/12/03 01:07:35;;;;;;;0.27;0.27;;;;;;;;;;5023884;28;20460;-67
2021/12/03 01:10:01;;;;;;;0.27;0.27;;;;;;;;;;5031688;28;20205;-67
2021/12/03 01:12:27;;;;;;;0.20;0.20;;;;;;;;;;5038168;28;20246;-67
2021/12/03 01:14:55;;;;;;;0.30;0.30;;;;;;;;;;5040784;28;20204;-67
2021/12/03 01:17:22;;;;;;;0.30;0.30;;;;;;;;;;5028379;28;20209;-67
2021/12/03 01:19:48;;;;;;;0.30;0.30;;;;;;;;;;5023868;28;20225;-67
2021/12/03 01:22:14;;;;;;;0.30;0.30;;;;;;;;;;5030778;28;20259;-66
2021/12/03 01:24:41;;;;;;;0.20;0.20;;;;;;;;;;5036606;28;20206;-67
2021/12/03 01:27:07;;;;;;;0.30;0.30;;;;;;;;;;5023820;28;20205;-67
2021/12/03 01:29:33;;;;;;;0.30;0.30;;;;;;;;;;5023704;28;20328;-67
2021/12/03 01:32:00;;;;;;;0.30;0.30;;;;;;;;;;5031988;28;20205;-67
2021/12/03 01:34:27;;;;;;;0.30;0.30;;;;;;;;;;5041195;28;20212;-67
2021/12/03 01:36:53;;;;;;;0.30;0.30;;;;;;;;;;5023342;28;20345;-67
2021/12/03 01:39:19;;;;;;;0.30;0.30;;;;;;;;;;5026399;28;20224;-67
2021/12/03 01:41:46;;;;;;;0.30;0.30;;;;;;;;;;5023430;28;20410;-67
2021/12/03 01:44:12;;;;;;;0.30;0.30;;;;;;;;;;5032812;28;20213;-67
2021/12/03 01:46:38;;;;;;;0.30;0.30;;;;;;;;;;5038458;28;20389;-67
2021/12/03 01:49:09;;;;;;;0.30;0.30;;;;;;;;;;5027989;28;20250;-67
2021/12/03 01:51:35;;;;;;;0.30;0.30;;;;;;;;;;5023615;28;20197;-67
2021/12/03 01:54:01;;;;;;;0.30;0.30;;;;;;;;;;5023010;28;20268;-67
2021/12/03 01:56:28;;;;;;;0.30;0.30;;;;;;;;;;5023237;28;20267;-67
2021/12/03 01:58:54;;;;;;;0.30;0.30;;;;;;;;;;5031177;28;20224;-67
2021/12/03 02:01:21;;;;;;;0.30;0.30;;;;;;;;;;5041817;28;20239;-67
2021/12/03 02:03:48;;;;;;;0.30;0.30;;;;;;;;;;5030676;28;20508;-67
2021/12/03 02:06:16;;;;;;;0.30;0.30;;;;;;;;;;5023109;28;20536;-68
2021/12/03 02:08:43;;;;;;;0.30;0.30;;;;;;;;;;5026560;28;20205;-68
2021/12/03 02:11:13;;;;;;;0.30;0.30;;;;;;;;;;5036206;28;20428;-68
2021/12/03 02:13:39;;;;;;;0.30;0.30;;;;;;;;;;5025279;28;20206;-67
2021/12/03 02:16:06;;;;;;;0.30;0.30;;;;;;;;;;5029995;28;20255;-67
2021/12/03 02:18:32;;;;;;;0.30;0.30;;;;;;;;;;5037582;28;20286;-68
2021/12/03 02:21:02;;;;;;;0.30;0.30;;;;;;;;;;5022707;28;20275;-67
2021/12/03 02:23:29;;;;;;;0.30;0.30;;;;;;;;;;5025787;28;20209;-67
2021/12/03 02:25:56;;;;;;;0.30;0.30;;;;;;;;;;5022959;28;20390;-67
2021/12/03 02:28:24;;;;;;;0.33;0.33;;;;;;;;;;5032074;28;20205;-67
2021/12/03 02:30:51;;;;;;;0.40;0.40;;;;;;;;;;5038374;28;20200;-67
2021/12/03 02:33:17;;;;;;;0.30;0.30;;;;;;;;;;5042758;28;20247;-67
2021/12/03 02:35:44;;;;;;;0.43;0.43;;;;;;;;;;5027003;28;20205;-67
2021/12/03 02:38:13;;;;;;;0.30;0.30;;;;;;;;;;5025475;28;20243;-67
2021/12/03 02:40:40;;;;;;;0.30;0.30;;;;;;;;;;5028152;28;20205;-67
2021/12/03 02:43:06;;;;;;;0.30;0.30;;;;;;;;;;5036350;28;20262;-67
2021/12/03 02:45:33;;;;;;;0.30;0.30;;;;;;;;;;5034523;28;20204;-67
2021/12/03 02:47:59;;;;;;;1.30;1.30;;;;;;;;;;5028674;28;20216;-67
2021/12/03 02:50:26;;;;;;;0.30;0.30;;;;;;;;;;5032311;28;20240;-67
2021/12/03 02:52:52;;;;;;;0.30;0.30;;;;;;;;;;5030718;28;20201;-67
2021/12/03 02:55:20;;;;;;;0.30;0.30;;;;;;;;;;5022401;28;20213;-67
2021/12/03 02:57:46;;;;;;;0.30;0.30;;;;;;;;;;5026518;28;20518;-67
2021/12/03 03:00:14;;;;;;;0.27;0.27;;;;;;;;;;5022194;28;20260;-67
2021/12/03 03:02:40;;;;;;;0.30;0.30;;;;;;;;;;5035176;28;20546;-68
2021/12/03 03:05:07;;;;;;;0.30;0.30;;;;;;;;;;5035226;28;20233;-68
2021/12/03 03:07:34;;;;;;;0.30;0.30;;;;;;;;;;5025318;28;20399;-69
2021/12/03 03:10:00;;;;;;;0.30;0.30;;;;;;;;;;5024921;28;20209;-68
2021/12/03 03:12:27;;;;;;;0.20;0.20;;;;;;;;;;5023777;28;20205;-68
2021/12/03 03:14:54;;;;;;;0.30;0.30;;;;;;;;;;5035345;28;20209;-68
2021/12/03 03:17:22;;;;;;;0.30;0.30;;;;;;;;;;5025122;28;20439;-68
2021/12/03 03:19:49;;;;;;;0.30;0.30;;;;;;;;;;5035376;28;20220;-68
2021/12/03 03:22:15;;;;;;;0.30;0.30;;;;;;;;;;5036238;28;20206;-68
2021/12/03 03:24:42;;;;;;;0.30;0.30;;;;;;;;;;5030783;28;20254;-68
2021/12/03 03:27:08;;;;;;;0.30;0.30;;;;;;;;;;5027022;28;20201;-68
2021/12/03 03:29:36;;;;;;;0.30;0.30;;;;;;;;;;5040838;28;20201;-68
2021/12/03 03:32:02;;;;;;;0.20;0.20;;;;;;;;;;5040711;28;20209;-68
2021/12/03 03:34:29;;;;;;;0.30;0.30;;;;;;;;;;5033581;28;20212;-66
2021/12/03 03:36:55;;;;;;;0.30;0.30;;;;;;;;;;5039139;28;20205;-66
2021/12/03 03:39:21;;;;;;;0.30;0.30;;;;;;;;;;5037073;28;20395;-67
2021/12/03 03:41:48;;;;;;;0.30;0.30;;;;;;;;;;5032214;28;20400;-67
2021/12/03 03:44:15;;;;;;;0.37;0.37;;;;;;;;;;5038469;28;20497;-67
2021/12/03 03:46:43;;;;;;;0.30;0.30;;;;;;;;;;5034837;28;20229;-67
2021/12/03 03:49:10;;;;;;;0.30;0.30;;;;;;;;;;5039013;28;20254;-67
2021/12/03 03:51:36;;;;;;;0.30;0.30;;;;;;;;;;5040162;28;20200;-66
2021/12/03 03:54:04;;;;;;;0.40;0.40;;;;;;;;;;5030156;28;20243;-66
2021/12/03 03:56:30;;;;;;;0.30;0.30;;;;;;;;;;5025396;28;20201;-66
2021/12/03 03:58:57;;;;;;;0.30;0.30;;;;;;;;;;5035691;28;20205;-67
2021/12/03 04:01:23;;;;;;;0.30;0.30;;;;;;;;;;5039574;28;20236;-66
2021/12/03 04:03:51;;;;;;;0.30;0.30;;;;;;;;;;5036288;28;20434;-66
2021/12/03 04:06:19;;;;;;;0.30;0.30;;;;;;;;;;5034943;28;20226;-68
2021/12/03 04:08:46;;;;;;;0.30;0.30;;;;;;;;;;5032135;28;20202;-67
2021/12/03 04:11:13;;;;;;;0.30;0.30;;;;;;;;;;5043190;28;20204;-67
2021/12/03 04:13:39;;;;;;;0.30;0.30;;;;;;;;;;5029931;28;20205;-67
2021/12/03 04:16:05;;;;;;;0.30;0.30;;;;;;;;;;5031700;28;20254;-67
2021/12/03 04:18:32;;;;;;;0.30;0.30;;;;;;;;;;5033884;28;20217;-67
2021/12/03 04:20:59;;;;;;;0.30;0.30;;;;;;;;;;5039925;28;20237;-66
2021/12/03 04:23:26;;;;;;;0.30;0.30;;;;;;;;;;5029395;28;20213;-66
2021/12/03 04:25:52;;;;;;;0.30;0.30;;;;;;;;;;5037612;28;20401;-68
2021/12/03 04:28:19;;;;;;;0.30;0.30;;;;;;;;;;5031606;28;20606;-67
2021/12/03 04:30:45;;;;;;;0.30;0.30;;;;;;;;;;5037820;28;20209;-67
2021/12/03 04:33:12;;;;;;;0.30;0.30;;;;;;;;;;5032281;28;20489;-67
2021/12/03 04:35:38;;;;;;;0.30;0.30;;;;;;;;;;5033710;28;20323;-67
2021/12/03 04:38:06;;;;;;;0.30;0.30;;;;;;;;;;5039555;28;20220;-67
2021/12/03 04:40:32;;;;;;;0.30;0.30;;;;;;;;;;5041182;28;20223;-67
2021/12/03 04:42:59;;;;;;;0.20;0.20;;;;;;;;;;5043656;28;20205;-66
2021/12/03 04:45:26;;;;;;;0.67;0.67;;;;;;;;;;5043474;28;20201;-67
2021/12/03 04:47:53;;;;;;;0.30;0.30;;;;;;;;;;5037804;28;20220;-67
2021/12/03 04:50:20;;;;;;;0.23;0.23;;;;;;;;;;5041749;28;20238;-67
2021/12/03 04:52:46;;;;;;;0.30;0.30;;;;;;;;;;5040792;28;20201;-67
2021/12/03 04:55:15;;;;;;;0.30;0.30;;;;;;;;;;5040477;28;20217;-67
2021/12/03 04:57:41;;;;;;;0.30;0.30;;;;;;;;;;5043324;28;20212;-67
2021/12/03 05:00:09;;;;;;;0.20;0.20;;;;;;;;;;5040061;28;20404;-68
2021/12/03 05:02:36;;;;;;;0.30;0.30;;;;;;;;;;5034818;28;20471;-67
2021/12/03 05:05:05;;;;;;;0.30;0.30;;;;;;;;;;5027853;28;20304;-67
2021/12/03 05:07:42;;;;;;;0.30;0.30;;;;;;;;;;5028855;28;20201;-67
2021/12/03 05:10:09;;;;;;;0.30;0.30;;;;;;;;;;5032868;28;20197;-66
2021/12/03 05:12:37;;;;;;;0.20;0.20;;;;;;;;;;5027371;28;20417;-67
2021/12/03 05:15:04;;;;;;;0.30;0.30;;;;;;;;;;5034783;28;20205;-66
2021/12/03 05:17:30;;;;;;;0.27;0.27;;;;;;;;;;5033750;28;20488;-67
2021/12/03 05:19:56;;;;;;;0.20;0.20;;;;;;;;;;5033510;28;20235;-68
2021/12/03 05:22:23;;;;;;;0.30;0.30;;;;;;;;;;5032689;28;20205;-67
2021/12/03 05:24:49;;;;;;;0.20;0.20;;;;;;;;;;5023773;28;20263;-68
2021/12/03 05:27:16;;;;;;;0.23;0.23;;;;;;;;;;5034934;28;20205;-67
2021/12/03 05:29:45;;;;;;;0.20;0.20;;;;;;;;;;5035983;28;20445;-67
2021/12/03 05:32:11;;;;;;;0.30;0.30;;;;;;;;;;5026176;28;20220;-68
2021/12/03 05:34:38;;;;;;;0.30;0.30;;;;;;;;;;5041013;28;20213;-68
2021/12/03 05:37:05;;;;;;;0.30;0.30;;;;;;;;;;5031266;28;20212;-67
2021/12/03 05:39:31;;;;;;;0.30;0.30;;;;;;;;;;5039968;28;20259;-66
2021/12/03 05:41:57;;;;;;;0.30;0.30;;;;;;;;;;5036513;28;20213;-68
2021/12/03 05:44:23;;;;;;;0.30;0.30;;;;;;;;;;5035814;28;20200;-68
2021/12/03 05:46:51;;;;;;;0.20;0.20;;;;;;;;;;5031401;28;20248;-68
2021/12/03 05:49:17;;;;;;;0.30;0.30;;;;;;;;;;5026027;28;20206;-68
2021/12/03 05:51:44;;;;;;;0.20;0.20;;;;;;;;;;5033158;28;20213;-66
2021/12/03 05:54:10;;;;;;;0.20;0.20;;;;;;;;;;5035283;28;20228;-67
2021/12/03 05:56:36;;;;;;;0.20;0.20;;;;;;;;;;5035845;28;20496;-67
2021/12/03 05:59:03;;;;;;;0.20;0.20;;;;;;;;;;5040318;28;20272;-67
2021/12/03 06:01:30;;;;;;;0.20;0.20;;;;;;;;;;5029205;28;20492;-67
2021/12/03 06:03:57;;;;;;;0.30;0.30;;;;;;;;;;5037663;28;20205;-67
2021/12/03 06:06:23;;;;;;;0.30;0.30;;;;;;;;;;5034044;28;20536;-67
2021/12/03 06:08:50;;;;;;;0.30;0.30;;;;;;;;;;5032216;28;20201;-67
2021/12/03 06:11:16;;;;;;;0.20;0.20;;;;;;;;;;5032628;28;20220;-67
2021/12/03 06:13:42;;;;;;;0.30;0.30;;;;;;;;;;5041966;28;20208;-67
2021/12/03 06:16:10;;;;;;;0.30;0.30;;;;;;;;;;5037014;28;20208;-67
2021/12/03 06:18:36;;;;;;;0.20;0.20;;;;;;;;;;5025585;28;20201;-67
2021/12/03 06:21:04;;;;;;;0.30;0.30;;;;;;;;;;5023712;28;20271;-68
2021/12/03 06:23:31;;;;;;;0.30;0.30;;;;;;;;;;5039824;28;20258;-68
2021/12/03 06:25:58;;;;;;;0.20;0.20;;;;;;;;;;5023320;28;20510;-68
2021/12/03 06:28:25;;;;;;;0.20;0.20;;;;;;;;;;5042729;28;20276;-68
2021/12/03 06:30:51;;;;;;;0.27;0.27;;;;;;;;;;5033070;28;20201;-68
2021/12/03 06:33:19;;;;;;;0.30;0.30;;;;;;;;;;5034678;28;20204;-67
2021/12/03 06:35:45;;;;;;;0.30;0.30;;;;;;;;;;5024594;28;20252;-67
2021/12/03 06:38:12;;;;;;;0.30;0.30;;;;;;;;;;5031432;28;20205;-67
2021/12/03 06:40:39;;;;;;;0.30;0.30;;;;;;;;;;5022714;28;20531;-67
2021/12/03 06:43:05;;;;;;;0.30;0.30;;;;;;;;;;5031744;28;20205;-66
2021/12/03 06:45:31;;;;;;;0.20;0.20;;;;;;;;;;5025959;28;20201;-67
2021/12/03 06:47:58;;;;;;;0.30;0.30;;;;;;;;;;5023570;28;20434;-70
2021/12/03 06:50:24;;;;;;;0.30;0.30;;;;;;;;;;5022452;28;20248;-67
2021/12/03 06:52:55;;;;;;;0.20;0.20;;;;;;;;;;5033720;28;20251;-68
2021/12/03 06:55:23;;;;;;;0.20;0.20;;;;;;;;;;5022564;28;20255;-67
2021/12/03 06:57:49;;;;;;;0.30;0.30;;;;;;;;;;5034139;28;20224;-67
2021/12/03 07:00:16;;;;;;;0.30;0.30;;;;;;;;;;5030067;28;20220;-68
2021/12/03 07:02:42;;;;;;;0.30;0.30;;;;;;;;;;5040476;28;20249;-67
2021/12/03 07:05:09;;;;;;;0.30;0.30;;;;;;;;;;5039218;28;20282;-66
2021/12/03 07:07:35;;;;;;;0.20;0.20;;;;;;;;;;5026653;28;20205;-68
2021/12/03 07:10:05;;;;;;;0.20;0.20;;;;;;;;;;5035166;28;20205;-67
2021/12/03 07:12:33;;;;;;;0.50;0.50;;;;;;;;;;5037798;28;20436;-68
2021/12/03 07:15:00;;;;;;;0.27;0.27;;;;;;;;;;5038041;28;20338;-68
2021/12/03 07:17:30;;;;;;;0.20;0.20;;;;;;;;;;5034543;28;20244;-68
2021/12/03 07:19:57;;;;;;;0.20;0.20;;;;;;;;;;5032648;28;20209;-71
2021/12/03 07:22:24;;;;;;;0.30;0.30;;;;;;;;;;5035862;28;20239;-68
2021/12/03 07:24:50;;;;;;;0.30;0.30;;;;;;;;;;5039103;28;20200;-69
2021/12/03 07:27:16;;;;;;;0.20;0.20;;;;;;;;;;5033874;28;20204;-68
2021/12/03 07:29:47;;;;;;;0.30;0.30;;;;;;;;;;5041600;28;20209;-67
2021/12/03 07:32:20;;;;;;;0.97;0.97;;;;;;;;;;5042591;28;20201;-67
2021/12/03 07:34:47;;;;;;;0.20;0.20;;;;;;;;;;5039540;28;20258;-67
2021/12/03 07:37:14;;;;;;;0.20;0.20;;;;;;;;;;5041400;28;20212;-68
2021/12/03 07:39:40;;;;;;;0.20;0.20;;;;;;;;;;5045244;28;20208;-68
2021/12/03 07:42:07;;;;;;;0.50;0.50;;;;;;;;;;5041410;28;20275;-68
2021/12/03 07:44:34;;;;;;;0.20;0.20;;;;;;;;;;5041557;28;20223;-68
2021/12/03 07:47:02;;;;;;;0.20;0.20;;;;;;;;;;5041032;28;20271;-68
2021/12/03 07:49:28;;;;;;;0.20;0.20;;;;;;;;;;5045289;28;20439;-68
2021/12/03 07:51:55;;;;;;;0.30;0.30;;;;;;;;;;5041467;28;20292;-68
2021/12/03 07:54:21;;;;;;;0.30;0.30;;;;;;;;;;5040848;28;20575;-66
2021/12/03 07:56:47;;;;;;;0.20;0.20;;;;;;;;;;5037151;28;20201;-65
2021/12/03 07:59:14;;;;;;;0.20;0.20;;;;;;;;;;5036040;28;20201;-68
2021/12/03 08:01:41;;;;;;;0.20;0.20;;;;;;;;;;5031053;28;20228;-68
2021/12/03 08:04:09;;;;;;;2.33;1.23;;;;;;;;;;5038135;28;20204;-67
2021/12/03 08:06:38;;;;;;;0.30;0.30;;;;;;;;;;5030429;28;20232;-69
2021/12/03 08:09:04;;;;;;;0.20;0.20;;;;;;;;;;5040819;28;20267;-66
2021/12/03 08:11:30;;;;;;;0.20;0.20;;;;;;;;;;5029933;28;20243;-68
2021/12/03 08:13:56;;;;;;;1.17;1.17;;;;;;;;;;5040337;28;20204;-67
2021/12/03 08:16:23;;;;;;;0.30;0.30;;;;;;;;;;5031694;28;20263;-68
2021/12/03 08:18:49;;;;;;;0.20;0.20;;;;;;;;;;5036535;28;20490;-68
2021/12/03 08:21:16;;;;;;;0.20;0.20;;;;;;;;;;5026999;28;20320;-67
2021/12/03 08:23:43;;;;;;;0.20;0.20;;;;;;;;;;5032354;28;20423;-67
2021/12/03 08:26:09;;;;;;;0.20;0.20;;;;;;;;;;5036410;28;20232;-68
2021/12/03 08:28:35;;;;;;;0.20;0.20;;;;;;;;;;5034419;28;20263;-67
2021/12/03 08:31:01;;;;;;;0.20;0.20;;;;;;;;;;5034832;28;20208;-68
2021/12/03 08:33:28;;;;;;;0.20;0.20;;;;;;;;;;5024378;28;20429;-68
2021/12/03 08:35:54;;;;;;;0.30;0.30;;;;;;;;;;5042309;28;20250;-66
2021/12/03 08:38:21;;;;;;;0.20;0.20;;;;;;;;;;5049081;28;20210;-67
2021/12/03 08:40:48;;;;;;;0.20;0.20;;;;;;;;;;5041890;28;20271;-67
2021/12/03 08:43:14;;;;;;;0.20;0.20;;;;;;;;;;5038927;28;20204;-67
2021/12/03 08:45:40;;;;;;;0.20;0.20;;;;;;;;;;5048309;28;20315;-68
2021/12/03 08:48:07;;;;;;;0.20;0.20;;;;;;;;;;5029938;28;20201;-68
2021/12/03 08:50:36;;;;;;;0.20;0.20;;;;;;;;;;5024244;28;20386;-69
2021/12/03 08:53:16;;;;;;;0.20;0.20;;;;;;;;;;5026021;28;20505;-69
2021/12/03 08:55:44;;;;;;;0.20;0.20;;;;;;;;;;5036851;28;20227;-66
2021/12/03 08:58:13;;;;;;;0.20;0.20;;;;;;;;;;5036267;28;20502;-68
2021/12/03 09:00:39;;;;;;;0.20;0.20;;;;;;;;;;5036553;28;20450;-68
2021/12/03 09:03:06;;;;;;;0.20;0.20;;;;;;;;;;5032850;28;20215;-68
2021/12/03 09:05:34;;;;;;;0.27;0.27;;;;;;;;;;5040072;28;20432;-68
2021/12/03 09:08:00;;;;;;;0.20;0.20;;;;;;;;;;5046556;28;20211;-69
2021/12/03 09:10:26;;;;;;;0.20;0.20;;;;;;;;;;5032374;28;20214;-68
2021/12/03 09:12:54;;;;;;;0.20;0.20;;;;;;;;;;5031840;28;20510;-68
2021/12/03 09:15:25;;;;;;;0.20;0.20;;;;;;;;;;5031801;28;20209;-67
2021/12/03 09:18:12;;;;;;;0.80;0.80;;;;;;;;;;5034691;28;20198;-68
2021/12/03 09:20:48;;;;;;;0.20;0.20;;;;;;;;;;5029470;28;20219;-66
2021/12/03 09:23:21;;;;;;;0.20;0.20;;;;;;;;;;5030070;28;20202;-67
2021/12/03 09:25:52;;;;;;;0.20;0.20;;;;;;;;;;5042694;28;20204;-67
2021/12/03 09:28:20;;;;;;;0.20;0.20;;;;;;;;;;5037646;28;20203;-66
2021/12/03 09:30:47;;;;;;;0.20;0.20;;;;;;;;;;5048122;28;20204;-67
2021/12/03 09:33:17;;;;;;;0.20;0.20;;;;;;;;;;5030546;28;20207;-68
2021/12/03 09:35:46;;;;;;;0.20;0.20;;;;;;;;;;5041104;28;20207;-67
2021/12/03 09:38:12;;;;;;;0.20;0.20;;;;;;;;;;5039772;28;20208;-68
2021/12/03 09:40:39;;;;;;;0.10;0.10;;;;;;;;;;5034290;28;20208;-67
2021/12/03 09:43:06;;;;;;;0.10;0.10;;;;;;;;;;5039965;28;20208;-68
2021/12/03 09:45:33;;;;;;;0.17;0.17;;;;;;;;;;5036188;28;20211;-69
2021/12/03 09:48:05;;;;;;;0.20;0.20;;;;;;;;;;5032644;28;20412;-67
2021/12/03 09:50:31;;;;;;;0.20;0.20;;;;;;;;;;5031921;28;20204;-68
2021/12/03 09:53:15;;;;;;;0.20;0.20;;;;;;;;;;5042091;28;20208;-68
2021/12/03 09:55:42;;;;;;;0.20;0.20;;;;;;;;;;5028759;28;20201;-67
2021/12/03 09:58:17;;;;;;;0.20;0.20;;;;;;;;;;5041733;28;20215;-68
2021/12/03 10:00:50;;;;;;;0.20;0.20;;;;;;;;;;5031526;28;20196;-68
2021/12/03 10:03:38;;;;;;;0.20;0.20;;;;;;;;;;5034781;28;20204;-67
2021/12/03 10:12:19;;;;;;;0.10;0.10;;;;;;;;;;5033327;28;20284;-68
2021/12/03 10:14:53;;;;;;;0.10;0.10;;;;;;;;;;5032306;28;20555;-68
2021/12/03 10:20:19;;;;;;;0.20;0.20;;;;;;;;;;5012198;28;20325;-68
2021/12/03 10:23:24;;;;;;;0.10;0.10;;;;;;;;;;5031174;28;20269;-69
2021/12/03 10:40:50;;;;;;;0.20;0.20;;;;;;;;;;5031048;28;20201;-68
2021/12/03 10:43:33;;;;;;;0.20;0.20;;;;;;;;;;5037420;28;20217;-68
2021/12/03 10:46:09;;;;;;;0.10;0.10;;;;;;;;;;5040917;28;20218;-67
2021/12/03 10:48:42;;;;;;;0.10;0.10;;;;;;;;;;5045594;28;20203;-68
2021/12/03 10:51:21;;;;;;;0.10;0.10;;;;;;;;;;5032795;28;20258;-68
2021/12/03 10:53:55;;;;;;;0.10;0.10;;;;;;;;;;5032883;28;20220;-67
2021/12/03 10:59:33;;;;;;;0.10;0.10;;;;;;;;;;5047071;28;20202;-68
2021/12/03 11:30:10;;;;;;;0.20;0.20;;;;;;;;;;5001639;28;20198;-66
2021/12/03 11:35:51;;;;;;;0.17;0.17;;;;;;;;;;5046271;28;20207;-66
2021/12/03 11:38:46;;;;;;;0.20;0.20;;;;;;;;;;5053496;28;20203;-66
2021/12/03 11:58:35;;;;;;;0.73;0.70;;;;;;;;;;5060146;28;20251;-67
2021/12/03 12:33:02;;;;;;;0.20;0.20;;;;;;;;;;5002538;28;20282;-67
2021/12/03 13:09:34;;;;;;;0.20;0.20;;;;;;;;;;5016376;28;20195;-68
2021/12/03 13:18:18;;;;;;;0.20;0.20;;;;;;;;;;5007500;28;20254;-68
2021/12/03 14:00:08;;;;;;;0.20;0.20;;;;;;;;;;5026468;28;20207;-68
2021/12/03 14:03:07;;;;;;;0.30;0.30;;;;;;;;;;5036121;28;20238;-67
2021/12/03 14:36:37;;;;;;;0.33;0.33;;;;;;;;;;5018103;28;20241;-68
2021/12/03 14:42:10;;;;;;;0.20;0.20;;;;;;;;;;5043432;28;20275;-67
2021/12/03 14:44:54;;;;;;;0.20;0.20;;;;;;;;;;5038255;28;20197;-68
2021/12/03 14:50:22;;;;;;;0.20;0.20;;;;;;;;;;5035226;28;20436;-67
2021/12/03 14:53:07;;;;;;;0.20;0.20;;;;;;;;;;5024988;28;20218;-67
2021/12/03 14:55:34;;;;;;;0.20;0.20;;;;;;;;;;5021977;28;20213;-66
2021/12/03 14:58:01;;;;;;;0.20;0.20;;;;;;;;;;5017838;28;20278;-69
2021/12/03 15:00:32;;;;;;;0.20;0.20;;;;;;;;;;5016283;28;20425;-68
2021/12/03 15:03:25;;;;;;;0.20;0.20;;;;;;;;;;5018699;28;20205;-68
2021/12/03 15:06:02;;;;;;;0.20;0.20;;;;;;;;;;5019863;28;20565;-68
2021/12/03 15:08:32;;;;;;;0.20;0.20;;;;;;;;;;5013909;28;20198;-67
2021/12/03 15:22:15;;;;;;;0.20;0.20;;;;;;;;;;5004286;28;20204;-67
2021/12/03 15:24:58;;;;;;;0.20;0.20;;;;;;;;;;5012904;28;20200;-71
2021/12/03 15:27:50;;;;;;;0.30;0.30;;;;;;;;;;5024409;28;20279;-68
2021/12/03 15:30:37;;;;;;;0.30;0.30;;;;;;;;;;5018257;28;20201;-65
2021/12/03 15:33:07;;;;;;;0.20;0.20;;;;;;;;;;5013999;28;20198;-67
2021/12/03 15:35:42;;;;;;;0.20;0.20;;;;;;;;;;5024089;28;20426;-68
2021/12/03 15:41:14;;;;;;;0.20;0.20;;;;;;;;;;5011313;28;20260;-69
2021/12/03 15:52:40;;;;;;;0.20;0.20;;;;;;;;;;4995468;28;20241;-68
2021/12/03 15:55:29;;;;;;;0.20;0.20;;;;;;;;;;5010505;28;20298;-69
2021/12/03 16:03:34;;;;;;;0.20;0.20;;;;;;;;;;5009468;28;20221;-70
2021/12/03 16:06:16;;;;;;;0.20;0.20;;;;;;;;;;5007463;28;20386;-70
2021/12/03 16:08:44;;;;;;;0.30;0.30;;;;;;;;;;5008237;28;20202;-69
2021/12/03 16:11:20;;;;;;;0.20;0.20;;;;;;;;;;5014860;28;20206;-70
2021/12/03 16:13:56;;;;;;;0.20;0.20;;;;;;;;;;5016230;28;20209;-68
2021/12/03 16:22:23;;;;;;;0.20;0.20;;;;;;;;;;4996421;28;20202;-68
2021/12/03 16:31:05;;;;;;;0.23;0.23;;;;;;;;;;4988732;28;20217;-70
2021/12/03 16:43:35;;;;;;;0.30;0.30;;;;;;;;;;5016117;28;20198;-69
2021/12/03 16:45:19;;;;;;;0.20;0.20;;;;;;;;;;5017209;28;20216;-68
2021/12/03 16:48:07;;;;;;;0.20;0.20;;;;;;;;;;5011732;28;20202;-69
2021/12/03 16:50:57;;;;;;;0.20;0.20;;;;;;;;;;5013766;28;20424;-68
2021/12/03 16:53:27;;;;;;;0.30;0.30;;;;;;;;;;5014182;28;20194;-67
2021/12/03 16:56:01;;;;;;;0.20;0.20;;;;;;;;;;5012517;28;20552;-68
2021/12/03 16:58:28;;;;;;;0.80;0.80;;;;;;;;;;5023736;28;20271;-69
2021/12/03 17:00:57;;;;;;;0.40;0.40;;;;;;;;;;5017780;28;20216;-70
2021/12/03 17:03:28;;;;;;;0.37;0.37;;;;;;;;;;5015932;28;20204;-68
2021/12/03 17:14:10;;;;;;;0.20;0.20;;;;;;;;;;5013473;28;20449;-66
2021/12/03 17:17:00;;;;;;;0.20;0.20;;;;;;;;;;5023395;28;20243;-66
2021/12/03 17:47:21;;;;;;;0.20;0.20;;;;;;;;;;5015736;28;20247;-65
2021/12/03 17:49:50;;;;;;;0.20;0.20;;;;;;;;;;5008564;28;20447;-67
2021/12/03 17:52:45;;;;;;;0.20;0.20;;;;;;;;;;5026834;28;20268;-68
2021/12/03 17:58:12;;;;;;;0.20;0.20;;;;;;;;;;4993141;28;20284;-67
2021/12/03 18:00:43;;;;;;;0.43;0.40;;;;;;;;;;5016361;28;20481;-66
2021/12/03 18:03:15;;;;;;;0.20;0.20;;;;;;;;;;5024245;28;20208;-67
2021/12/03 18:06:03;;;;;;;0.20;0.20;;;;;;;;;;5014464;28;20376;-67
2021/12/03 18:08:37;;;;;;;0.20;0.20;;;;;;;;;;5013809;28;20395;-67
2021/12/03 18:11:40;;;;;;;0.20;0.20;;;;;;;;;;5012278;28;20277;-66
2021/12/03 18:14:29;;;;;;;0.20;0.20;;;;;;;;;;5015521;28;20213;-66
2021/12/03 18:17:24;;;;;;;0.20;0.20;;;;;;;;;;5021254;28;20209;-66
2021/12/03 18:44:57;;;;;;;0.20;0.20;;;;;;;;;;4970168;28;20284;-67
2021/12/03 18:47:45;;;;;;;0.20;0.20;;;;;;;;;;5012096;28;20365;-68
2021/12/03 18:53:07;;;;;;;0.20;0.20;;;;;;;;;;5008438;28;20241;-68
2021/12/03 18:55:37;;;;;;;0.20;0.20;;;;;;;;;;5008144;28;20206;-68
2021/12/03 18:58:05;;;;;;;0.20;0.20;;;;;;;;;;5009328;28;20214;-68
2021/12/03 19:00:34;;;;;;;0.20;0.20;;;;;;;;;;5007331;28;20257;-68
2021/12/03 19:03:04;;;;;;;0.20;0.20;;;;;;;;;;5014680;28;20206;-68
2021/12/03 19:05:37;;;;;;;0.20;0.20;;;;;;;;;;5015512;28;20287;-68
2021/12/03 19:08:07;;;;;;;0.20;0.20;;;;;;;;;;5012119;28;20202;-68
2021/12/03 19:10:40;;;;;;;0.57;0.57;;;;;;;;;;5012798;28;20197;-68
2021/12/03 19:13:13;;;;;;;0.20;0.20;;;;;;;;;;5012357;28;20221;-67
2021/12/03 19:15:41;;;;;;;2.53;1.13;;;;;;;;;;5010539;28;20344;-68
2021/12/03 19:18:07;;;;;;;0.20;0.20;;;;;;;;;;5015107;28;20377;-68
2021/12/03 19:20:37;;;;;;;0.20;0.20;;;;;;;;;;5009486;28;20206;-68
2021/12/03 19:23:04;;;;;;;0.20;0.20;;;;;;;;;;5011153;28;20505;-67
2021/12/03 19:25:30;;;;;;;0.30;0.30;;;;;;;;;;5009515;28;20284;-69
2021/12/03 19:27:56;;;;;;;0.20;0.20;;;;;;;;;;5013647;28;20292;-67
2021/12/03 19:30:24;;;;;;;0.20;0.20;;;;;;;;;;5009277;28;20235;-68
2021/12/03 19:32:50;;;;;;;0.20;0.20;;;;;;;;;;5010142;28;20217;-68
2021/12/03 19:35:16;;;;;;;0.20;0.20;;;;;;;;;;5004599;28;20408;-69
2021/12/03 19:37:45;;;;;;;0.30;0.30;;;;;;;;;;5007258;28;20281;-68
2021/12/03 19:40:12;;;;;;;0.20;0.20;;;;;;;;;;5013702;28;20206;-68
2021/12/03 19:42:43;;;;;;;0.20;0.20;;;;;;;;;;5020589;28;20244;-67
2021/12/03 19:45:13;;;;;;;3.10;3.00;;;;;;;;;;5016617;28;20312;-67
2021/12/03 19:47:52;;;;;;;0.20;0.20;;;;;;;;;;5012254;28;20196;-67
2021/12/03 19:50:22;;;;;;;0.20;0.20;;;;;;;;;;5013261;28;20244;-68
2021/12/03 19:52:54;;;;;;;0.20;0.20;;;;;;;;;;5013412;28;20293;-70
2021/12/03 19:55:20;;;;;;;0.20;0.20;;;;;;;;;;5007675;28;20379;-69
2021/12/03 19:57:46;;;;;;;0.20;0.20;;;;;;;;;;5011820;28;20392;-68
2021/12/03 20:00:13;;;;;;;0.20;0.20;;;;;;;;;;5010964;28;20493;-68
2021/12/03 20:02:40;;;;;;;0.20;0.20;;;;;;;;;;5023373;28;20208;-68
2021/12/03 20:05:07;;;;;;;0.20;0.20;;;;;;;;;;5014139;28;20225;-68
2021/12/03 20:07:34;;;;;;;0.20;0.20;;;;;;;;;;5017745;28;20543;-68
2021/12/03 20:10:03;;;;;;;0.23;0.23;;;;;;;;;;5011270;28;20281;-68
2021/12/03 20:12:31;;;;;;;0.20;0.20;;;;;;;;;;5022058;28;20225;-66
2021/12/03 20:14:57;;;;;;;0.30;0.30;;;;;;;;;;5020076;28;20230;-68
2021/12/03 20:17:27;;;;;;;0.20;0.20;;;;;;;;;;5015213;28;20222;-68
2021/12/03 20:19:57;;;;;;;0.60;0.60;;;;;;;;;;5012100;28;20209;-66
2021/12/03 20:22:33;;;;;;;0.20;0.20;;;;;;;;;;5013048;28;20202;-68
2021/12/03 20:25:32;;;;;;;0.30;0.30;;;;;;;;;;5020915;28;20201;-66
2021/12/03 20:28:01;;;;;;;0.30;0.30;;;;;;;;;;5021186;28;20203;-67
2021/12/03 20:30:37;;;;;;;0.20;0.20;;;;;;;;;;5017750;28;20201;-67
2021/12/03 20:33:10;;;;;;;0.20;0.20;;;;;;;;;;5017767;28;20492;-69
2021/12/03 20:35:58;;;;;;;0.20;0.20;;;;;;;;;;5025773;28;20335;-68
2021/12/03 20:38:26;;;;;;;0.20;0.20;;;;;;;;;;5012191;28;20568;-71